createdAt,value
2022-12-18T07:18:04.769Z,24.95
2022-12-18T07:19:05.881Z,17.33
2022-12-18T07:20:07.301Z,19.73
2022-12-18T07:21:09.344Z,19.75
2022-12-18T07:23:11.165Z,17.08
2022-12-18T07:24:11.998Z,18.85
2022-12-18T07:25:13.197Z,22.95
2022-12-18T07:26:14.820Z,17.92
2022-12-18T07:27:15.946Z,18.10
2022-12-18T07:28:17.747Z,19.35
2022-12-18T07:29:19.126Z,19.17
2022-12-18T07:30:19.986Z,16.65
2022-12-18T07:31:22.058Z,18.60
2022-12-18T07:32:23.091Z,20.42
2022-12-18T07:33:24.962Z,23.67
2022-12-18T07:34:25.999Z,20.70
2022-12-18T07:35:27.142Z,20.63
2022-12-18T07:36:28.060Z,19.60
2022-12-18T07:37:29.243Z,22.85
2022-12-18T07:38:30.448Z,17.92
2022-12-18T07:39:32.540Z,18.52
2022-12-18T07:40:33.396Z,23.35
2022-12-18T07:41:34.528Z,25.27
2022-12-18T07:42:36.341Z,21.40
2022-12-18T07:43:38.075Z,18.92
2022-12-18T07:45:42.626Z,18.27
2022-12-18T07:46:43.808Z,18.42
2022-12-18T07:47:44.914Z,19.20
2022-12-18T07:48:50.075Z,22.30
2022-12-18T07:49:51.430Z,19.95
2022-12-18T07:50:52.468Z,21.90
2022-12-18T07:51:55.197Z,25.85
2022-12-18T07:52:56.349Z,18.25
2022-12-18T07:53:57.659Z,19.55
2022-12-18T07:54:58.495Z,22.77
2022-12-18T07:56:25.889Z,19.38
2022-12-18T07:57:49.098Z,21.50
2022-12-18T07:58:44.544Z,16.58
2022-12-18T07:59:45.761Z,21.33
2022-12-18T08:00:46.921Z,17.75
2022-12-18T08:01:49.101Z,19.60
2022-12-18T08:02:50.417Z,26.50
2022-12-18T08:03:52.276Z,25.00
2022-12-18T08:04:54.396Z,25.58
2022-12-18T08:05:58.380Z,26.08
2022-12-18T08:06:59.666Z,22.00
2022-12-18T08:08:00.509Z,24.13
2022-12-18T08:09:01.645Z,25.17
2022-12-18T08:10:02.683Z,27.17
2022-12-18T08:11:04.825Z,27.85
2022-12-18T08:12:06.367Z,26.17
2022-12-18T08:13:07.221Z,22.27
2022-12-18T08:14:08.371Z,23.13
2022-12-18T08:15:09.671Z,60.22
2022-12-18T08:16:10.891Z,77.18
2022-12-18T08:17:11.810Z,63.78
2022-12-18T08:18:14.509Z,63.08
2022-12-18T08:19:16.257Z,72.40
2022-12-18T08:20:18.596Z,51.08
2022-12-18T08:21:21.484Z,53.88
2022-12-18T08:22:22.682Z,39.78
2022-12-18T08:23:26.458Z,34.78
2022-12-18T08:24:29.744Z,27.98
2022-12-18T08:25:30.652Z,40.92
2022-12-18T08:26:31.985Z,24.15
2022-12-18T08:27:32.833Z,20.15
2022-12-18T08:28:34.343Z,23.90
2022-12-18T08:29:35.212Z,28.40
2022-12-18T08:30:36.488Z,22.55
2022-12-18T08:31:38.300Z,20.35
2022-12-18T08:32:39.185Z,22.88
2022-12-18T08:33:41.867Z,26.80
2022-12-18T08:34:43.847Z,23.35
2022-12-18T08:35:46.108Z,17.50
2022-12-18T08:36:47.167Z,19.83
2022-12-18T08:37:48.316Z,19.63
2022-12-18T08:38:49.151Z,18.38
2022-12-18T08:39:50.265Z,19.23
2022-12-18T08:40:54.926Z,17.55
2022-12-18T08:42:14.107Z,19.75
2022-12-18T08:43:33.438Z,19.65
2022-12-18T08:44:41.479Z,18.95
2022-12-18T08:45:42.368Z,19.77
2022-12-18T08:46:44.240Z,18.67
2022-12-18T08:47:45.083Z,20.55
2022-12-18T08:48:47.649Z,17.33
2022-12-18T08:49:49.447Z,18.52
2022-12-18T08:50:59.698Z,18.30
2022-12-18T08:52:00.986Z,19.08
2022-12-18T08:53:02.401Z,23.85
2022-12-18T08:54:04.105Z,25.38
2022-12-18T08:55:08.347Z,23.48
2022-12-18T08:57:10.349Z,20.92
2022-12-18T08:58:11.477Z,21.50
2022-12-18T08:59:19.154Z,22.42
2022-12-18T09:00:21.092Z,21.70
2022-12-18T09:01:22.340Z,21.08
2022-12-18T09:02:23.736Z,19.27
2022-12-18T09:03:24.757Z,18.60
2022-12-18T09:04:26.012Z,17.10
2022-12-18T09:05:27.883Z,21.88
2022-12-18T09:06:28.728Z,24.83
2022-12-18T09:07:29.904Z,23.83
2022-12-18T09:08:30.745Z,22.42
2022-12-18T09:09:31.850Z,23.10
2022-12-18T09:10:32.748Z,22.98
2022-12-18T09:11:34.281Z,23.02
2022-12-18T09:12:35.162Z,24.98
2022-12-18T09:13:36.373Z,31.93
2022-12-18T09:14:37.257Z,51.30
2022-12-18T09:15:41.060Z,45.83
2022-12-18T09:16:42.423Z,68.57
2022-12-18T09:17:43.334Z,123.78
2022-12-18T09:18:44.505Z,45.22
2022-12-18T09:19:45.687Z,94.80
2022-12-18T09:20:47.447Z,129.27
2022-12-18T09:21:48.787Z,72.53
2022-12-18T09:22:49.810Z,141.05
2022-12-18T09:23:51.738Z,79.22
2022-12-18T09:24:52.603Z,64.43
2022-12-18T09:25:59.271Z,60.37
2022-12-18T09:27:00.389Z,73.65
2022-12-18T09:28:02.225Z,59.42
2022-12-18T09:29:03.399Z,35.78
2022-12-18T09:30:04.831Z,66.88
2022-12-18T09:31:07.671Z,49.22
2022-12-18T09:32:08.798Z,62.22
2022-12-18T09:33:09.665Z,37.75
2022-12-18T09:34:10.767Z,39.37
2022-12-18T09:35:11.602Z,24.60
2022-12-18T09:36:14.740Z,27.65
2022-12-18T09:37:15.876Z,20.77
2022-12-18T09:38:18.138Z,19.45
2022-12-18T09:39:19.267Z,21.67
2022-12-18T09:40:25.485Z,24.55
2022-12-18T09:41:37.169Z,21.52
2022-12-18T09:42:38.385Z,28.20
2022-12-18T09:43:42.427Z,20.80
2022-12-18T09:44:46.660Z,20.77
2022-12-18T09:45:52.050Z,18.10
2022-12-18T09:47:04.560Z,34.53
2022-12-18T09:49:10.868Z,20.92
2022-12-18T09:50:20.318Z,21.35
2022-12-18T09:51:24.684Z,18.95
2022-12-18T09:52:28.117Z,20.83
2022-12-18T09:53:31.806Z,15.90
2022-12-18T09:54:36.561Z,22.40
2022-12-18T09:55:39.039Z,17.90
2022-12-18T09:56:41.646Z,24.05
2022-12-18T09:57:45.855Z,19.98
2022-12-18T09:58:50.361Z,18.88
2022-12-18T09:59:53.869Z,16.48
2022-12-18T10:00:55.242Z,16.83
2022-12-18T10:01:56.873Z,31.52
2022-12-18T10:03:00.050Z,18.60
2022-12-18T10:04:01.468Z,16.67
2022-12-18T10:05:12.891Z,18.25
2022-12-18T10:06:15.661Z,18.65
2022-12-18T10:07:20.735Z,23.25
2022-12-18T10:08:25.277Z,19.10
2022-12-18T10:09:28.738Z,17.75
2022-12-18T10:10:34.069Z,19.67
2022-12-18T10:11:39.177Z,17.27
2022-12-18T10:12:43.149Z,18.42
2022-12-18T10:13:47.472Z,19.52
2022-12-18T10:14:51.623Z,18.80
2022-12-18T10:15:59.030Z,18.30
2022-12-18T10:17:01.046Z,18.73
2022-12-18T10:19:12.661Z,17.88
2022-12-18T10:20:16.614Z,24.83
2022-12-18T10:21:19.506Z,19.33
2022-12-18T10:22:31.807Z,18.40
2022-12-18T10:23:34.009Z,19.83
2022-12-18T10:24:39.846Z,20.23
2022-12-18T10:25:46.239Z,17.75
2022-12-18T10:26:47.696Z,14.90
2022-12-18T10:27:49.531Z,18.88
2022-12-18T10:28:51.495Z,17.83
2022-12-18T10:29:54.282Z,17.40
2022-12-18T10:31:56.201Z,19.42
2022-12-18T10:33:01.017Z,14.87
2022-12-18T10:34:02.130Z,19.77
2022-12-18T10:35:03.438Z,17.98
2022-12-18T10:36:06.532Z,17.45
2022-12-18T10:37:13.196Z,17.38
2022-12-18T10:38:25.266Z,16.70
2022-12-18T10:39:26.534Z,17.90
2022-12-18T10:40:27.438Z,22.48
2022-12-18T10:41:29.385Z,18.30
2022-12-18T10:42:30.529Z,19.30
2022-12-18T10:43:32.881Z,17.97
2022-12-18T10:44:33.729Z,19.95
2022-12-18T10:45:35.345Z,18.07
2022-12-18T10:46:36.573Z,18.77
2022-12-18T10:47:42.322Z,17.58
2022-12-18T10:48:51.255Z,15.55
2022-12-18T10:49:55.182Z,17.67
2022-12-18T10:51:13.666Z,17.40
2022-12-18T10:52:17.884Z,18.83
2022-12-18T10:53:20.530Z,16.23
2022-12-18T10:54:24.366Z,17.00
2022-12-18T10:55:28.157Z,16.00
2022-12-18T10:56:29.726Z,15.52
2022-12-18T10:57:32.689Z,12.85
2022-12-18T10:58:34.598Z,17.33
2022-12-18T11:00:36.470Z,15.05
2022-12-18T11:01:51.239Z,16.63
2022-12-18T11:02:52.526Z,16.30
2022-12-18T11:04:02.711Z,17.55
2022-12-18T11:05:23.404Z,16.35
2022-12-18T11:06:25.261Z,15.65
2022-12-18T11:08:27.192Z,10.93
2022-12-18T11:09:30.109Z,13.68
2022-12-18T11:10:32.615Z,13.45
2022-12-18T11:11:34.002Z,14.68
2022-12-18T11:12:34.906Z,15.77
2022-12-18T11:13:36.181Z,13.60
2022-12-18T11:14:46.777Z,14.05
2022-12-18T11:15:48.814Z,15.27
2022-12-18T11:19:19.555Z,12.38
2022-12-18T11:20:27.603Z,15.38
2022-12-18T11:21:28.461Z,15.15
2022-12-18T11:22:30.629Z,13.20
2022-12-18T11:23:31.762Z,13.23
2022-12-18T11:24:34.545Z,17.92
2022-12-18T11:25:36.350Z,13.68
2022-12-18T11:27:38.901Z,15.77
2022-12-18T11:28:41.699Z,17.27
2022-12-18T11:29:46.626Z,14.18
2022-12-18T11:30:48.177Z,14.18
2022-12-18T11:31:49.340Z,13.80
2022-12-18T11:32:52.753Z,17.35
2022-12-18T11:34:27.375Z,15.73
2022-12-18T11:35:24.058Z,14.98
2022-12-18T11:36:26.180Z,16.08
2022-12-18T11:37:27.685Z,16.58
2022-12-18T11:38:30.265Z,15.05
2022-12-18T11:39:33.288Z,16.30
2022-12-18T11:40:40.831Z,17.77
2022-12-18T11:42:04.060Z,16.00
2022-12-18T11:43:08.967Z,17.02
2022-12-18T11:44:11.892Z,15.65
2022-12-18T11:45:33.925Z,15.18
2022-12-18T11:46:37.072Z,15.82
2022-12-18T11:47:40.194Z,18.00
2022-12-18T11:48:44.961Z,17.88
2022-12-18T11:49:48.150Z,20.70
2022-12-18T11:50:51.796Z,16.95
2022-12-18T11:51:56.001Z,13.80
2022-12-18T11:53:01.479Z,13.95
2022-12-18T11:54:10.637Z,16.08
2022-12-18T11:55:12.358Z,17.77
2022-12-18T11:56:22.408Z,13.95
2022-12-18T11:57:28.110Z,12.73
2022-12-18T11:58:37.399Z,16.77
2022-12-18T11:59:41.372Z,13.52
2022-12-18T12:00:46.197Z,16.75
2022-12-18T12:01:51.096Z,13.88
2022-12-18T12:03:10.080Z,14.07
2022-12-18T12:04:32.232Z,17.52
2022-12-18T12:05:42.433Z,17.88
2022-12-18T12:06:48.183Z,15.55
2022-12-18T12:07:53.519Z,16.88
2022-12-18T12:09:02.007Z,15.25
2022-12-18T12:10:09.878Z,13.60
2022-12-18T12:11:16.114Z,16.60
2022-12-18T12:12:24.769Z,13.23
2022-12-18T12:13:35.772Z,16.23
2022-12-18T12:14:44.943Z,18.35
2022-12-18T12:15:51.567Z,21.38
2022-12-18T12:16:57.575Z,20.25
2022-12-18T12:18:03.866Z,15.35
2022-12-18T12:19:16.298Z,14.68
2022-12-18T12:20:20.764Z,14.80
2022-12-18T12:21:24.339Z,13.90
2022-12-18T12:22:29.584Z,14.30
2022-12-18T12:23:34.971Z,14.65
2022-12-18T12:24:43.562Z,14.60
2022-12-18T12:25:49.076Z,17.63
2022-12-18T12:26:53.154Z,14.43
2022-12-18T12:28:00.106Z,19.00
2022-12-18T12:29:04.229Z,18.23
2022-12-18T12:30:19.405Z,17.17
2022-12-18T12:31:25.502Z,16.70
2022-12-18T12:32:34.947Z,14.13
2022-12-18T12:33:43.727Z,16.35
2022-12-18T12:34:54.792Z,17.38
2022-12-18T12:36:02.533Z,14.35
2022-12-18T12:37:12.152Z,14.02
2022-12-18T12:38:14.866Z,14.77
2022-12-18T12:39:18.999Z,16.77
2022-12-18T12:40:52.088Z,16.92
2022-12-18T12:42:05.392Z,16.00
2022-12-18T12:43:15.529Z,17.92
2022-12-18T12:44:18.285Z,15.73
2022-12-18T12:45:23.278Z,15.13
2022-12-18T12:46:25.764Z,16.33
2022-12-18T12:47:29.112Z,17.67
2022-12-18T12:48:37.096Z,14.93
2022-12-18T12:49:40.960Z,17.55
2022-12-18T12:50:42.487Z,20.15
2022-12-18T12:51:45.348Z,17.83
2022-12-18T12:52:47.727Z,15.52
2022-12-18T12:53:49.511Z,16.17
2022-12-18T12:54:50.980Z,15.77
2022-12-18T12:55:53.336Z,13.80
2022-12-18T12:57:01.149Z,12.07
2022-12-18T12:58:06.388Z,22.30
2022-12-18T12:59:14.556Z,15.25
2022-12-18T13:00:16.483Z,16.75
2022-12-18T13:02:28.307Z,15.88
2022-12-18T13:03:35.319Z,18.70
2022-12-18T13:04:41.374Z,14.32
2022-12-18T13:05:46.502Z,17.02
2022-12-18T13:06:51.012Z,14.70
2022-12-18T13:07:53.777Z,15.48
2022-12-18T13:08:58.020Z,13.75
2022-12-18T13:10:15.445Z,17.15
2022-12-18T13:11:48.512Z,17.08
2022-12-18T13:12:56.728Z,17.25
2022-12-18T13:13:58.009Z,16.40
2022-12-18T13:15:11.977Z,19.13
2022-12-18T13:16:13.201Z,19.27
2022-12-18T13:17:31.155Z,15.65
2022-12-18T13:18:32.987Z,19.85
2022-12-18T13:19:34.052Z,16.25
2022-12-18T13:20:35.555Z,17.70
2022-12-18T13:21:36.738Z,18.75
2022-12-18T13:22:39.454Z,35.88
2022-12-18T13:23:41.395Z,25.40
2022-12-18T13:24:43.273Z,39.10
2022-12-18T13:25:44.446Z,23.35
2022-12-18T13:26:45.836Z,27.70
2022-12-18T13:28:00.122Z,19.27
2022-12-18T13:29:06.270Z,27.00
2022-12-18T13:30:23.052Z,35.05
2022-12-18T13:31:43.428Z,17.40
2022-12-18T13:32:45.144Z,21.08
2022-12-18T13:34:23.991Z,24.95
2022-12-18T13:35:26.212Z,23.15
2022-12-18T13:36:29.145Z,26.50
2022-12-18T13:37:52.407Z,49.50
2022-12-18T13:39:32.724Z,108.18
2022-12-18T13:40:56.444Z,89.18
2022-12-18T13:42:32.943Z,269.55
2022-12-18T13:43:36.330Z,134.68
2022-12-18T13:44:41.155Z,56.78
2022-12-18T13:45:44.737Z,51.05
2022-12-18T13:46:49.494Z,43.92
2022-12-18T13:47:51.145Z,50.58
2022-12-18T13:48:54.757Z,42.58
2022-12-18T13:49:57.009Z,26.60
2022-12-18T13:51:00.824Z,23.38
2022-12-18T13:52:02.104Z,26.42
2022-12-18T13:53:03.599Z,22.10
2022-12-18T13:54:11.857Z,20.77
2022-12-18T13:55:16.449Z,22.30
2022-12-18T13:56:18.115Z,22.70
2022-12-18T13:57:29.270Z,23.95
2022-12-18T13:58:30.697Z,22.23
2022-12-18T13:59:34.355Z,21.20
2022-12-18T14:00:35.434Z,23.20
2022-12-18T14:01:36.675Z,19.65
2022-12-18T14:02:38.666Z,27.60
2022-12-18T14:04:41.319Z,25.80
2022-12-18T14:05:45.347Z,22.85
2022-12-18T14:06:46.736Z,19.95
2022-12-18T14:07:48.022Z,20.17
2022-12-18T14:08:51.820Z,21.88
2022-12-18T14:10:01.996Z,18.67
2022-12-18T14:11:08.249Z,15.35
2022-12-18T14:12:34.708Z,16.67
2022-12-18T14:13:38.112Z,14.18
2022-12-18T14:14:40.876Z,16.15
2022-12-18T14:15:43.027Z,15.90
2022-12-18T14:16:44.839Z,16.63
2022-12-18T14:17:47.072Z,17.63
2022-12-18T14:18:49.791Z,16.10
2022-12-18T14:19:51.672Z,14.07
2022-12-18T14:20:55.336Z,15.05
2022-12-18T14:21:56.474Z,16.77
2022-12-18T14:22:57.945Z,18.35
2022-12-18T14:24:07.252Z,15.98
2022-12-18T14:25:15.302Z,15.52
2022-12-18T14:26:28.329Z,14.30
2022-12-18T14:27:29.466Z,17.92
2022-12-18T14:28:30.529Z,17.05
2022-12-18T14:29:31.804Z,15.10
2022-12-18T14:30:35.269Z,14.63
2022-12-18T14:31:36.624Z,20.80
2022-12-18T14:32:37.772Z,15.63
2022-12-18T14:33:38.949Z,16.20
2022-12-18T14:34:40.455Z,15.77
2022-12-18T14:35:42.663Z,24.55
2022-12-18T14:36:52.473Z,16.60
2022-12-18T14:37:53.924Z,15.45
2022-12-18T14:38:55.588Z,18.23
2022-12-18T14:39:58.170Z,18.90
2022-12-18T14:41:00.509Z,15.65
2022-12-18T14:42:01.674Z,22.58
2022-12-18T14:43:02.850Z,18.05
2022-12-18T14:44:06.234Z,16.40
2022-12-18T14:45:25.761Z,21.58
2022-12-18T14:46:28.731Z,19.42
2022-12-18T14:47:29.781Z,18.70
2022-12-18T14:48:38.415Z,27.53
2022-12-18T14:49:42.694Z,24.52
2022-12-18T14:50:44.921Z,26.60
2022-12-18T14:51:48.457Z,30.92
2022-12-18T14:52:49.728Z,74.07
2022-12-18T14:53:55.464Z,150.30
2022-12-18T14:54:56.976Z,59.60
2022-12-18T14:55:57.864Z,28.15
2022-12-18T14:57:00.873Z,37.60
2022-12-18T14:58:02.145Z,73.78
2022-12-18T14:59:04.261Z,87.57
2022-12-18T15:00:05.837Z,123.75
2022-12-18T15:01:07.332Z,63.45
2022-12-18T15:02:13.737Z,101.40
2022-12-18T15:03:17.996Z,169.20
2022-12-18T15:04:25.003Z,76.07
2022-12-18T15:05:27.686Z,93.57
2022-12-18T15:06:33.381Z,60.78
2022-12-18T15:07:40.900Z,167.07
2022-12-18T15:08:42.875Z,207.43
2022-12-18T15:09:44.541Z,131.35
2022-12-18T15:10:47.674Z,26.65
2022-12-18T15:11:49.002Z,235.88
2022-12-18T15:12:51.293Z,67.85
2022-12-18T15:13:52.228Z,166.10
2022-12-18T15:14:53.388Z,54.40
2022-12-18T15:15:56.282Z,27.45
2022-12-18T15:16:58.610Z,21.27
2022-12-18T15:17:59.927Z,29.58
2022-12-18T15:19:01.444Z,39.90
2022-12-18T15:20:04.356Z,21.33
2022-12-18T15:21:09.253Z,24.27
2022-12-18T15:22:19.688Z,22.90
2022-12-18T15:23:22.277Z,57.20
2022-12-18T15:24:25.412Z,25.08
2022-12-18T15:25:29.623Z,22.13
2022-12-18T15:26:37.197Z,23.38
2022-12-18T15:27:38.329Z,49.65
2022-12-18T15:28:43.488Z,43.67
2022-12-18T20:53:12.070Z,36.91
2022-12-18T20:54:13.194Z,55.67
2022-12-18T20:55:14.446Z,22.27
2022-12-18T20:56:17.733Z,40.95
2022-12-18T20:57:22.558Z,33.13
2022-12-18T20:58:23.817Z,31.85
2022-12-18T20:59:25.307Z,21.02
2022-12-18T21:00:26.132Z,19.42
2022-12-18T21:01:29.829Z,19.73
2022-12-18T21:02:31.400Z,19.58
2022-12-18T21:03:32.499Z,21.77
2022-12-18T21:04:33.657Z,21.42
2022-12-18T21:05:34.738Z,19.15
2022-12-18T21:06:37.953Z,19.98
2022-12-18T21:07:39.341Z,20.38
2022-12-18T21:08:41.038Z,19.75
2022-12-18T21:09:42.152Z,14.30
2022-12-18T21:10:42.972Z,23.23
2022-12-18T21:12:02.267Z,18.63
2022-12-18T21:13:05.866Z,24.98
2022-12-18T21:14:09.412Z,18.90
2022-12-18T21:15:10.799Z,22.25
2022-12-18T21:16:11.673Z,19.90
2022-12-18T21:17:12.998Z,20.85
2022-12-18T21:18:14.245Z,20.05
2022-12-18T21:19:16.340Z,18.63
2022-12-18T21:20:18.872Z,20.90
2022-12-18T21:21:26.255Z,20.55
2022-12-18T21:22:28.249Z,23.98
2022-12-18T21:23:29.634Z,26.77
2022-12-18T21:24:32.878Z,21.45
2022-12-18T21:25:34.419Z,27.55
2022-12-18T21:26:39.191Z,20.83
2022-12-18T21:27:44.711Z,16.70
2022-12-18T21:28:45.809Z,24.92
2022-12-18T21:29:47.113Z,21.13
2022-12-18T21:30:48.416Z,17.23
2022-12-18T21:31:50.519Z,18.92
2022-12-18T21:32:51.356Z,18.73
2022-12-18T21:33:54.587Z,16.00
2022-12-18T21:35:01.361Z,16.60
2022-12-18T21:36:03.018Z,16.88
2022-12-18T21:37:04.281Z,16.45
2022-12-18T21:38:06.015Z,16.20
2022-12-18T21:39:06.930Z,16.13
2022-12-18T21:40:09.712Z,17.03
2022-12-18T21:41:31.973Z,18.80
2022-12-18T21:42:51.138Z,21.42
2022-12-18T21:44:07.151Z,17.65
2022-12-18T21:45:08.588Z,16.23
2022-12-18T21:46:09.513Z,23.83
2022-12-18T21:47:23.043Z,18.77
2022-12-18T21:48:24.550Z,21.42
2022-12-18T21:49:25.788Z,18.38
2022-12-18T21:50:26.953Z,19.45
2022-12-18T21:51:27.932Z,20.40
2022-12-18T21:52:32.182Z,20.65
2022-12-18T21:53:33.565Z,19.38
2022-12-18T21:54:34.708Z,22.00
2022-12-18T21:55:36.502Z,29.08
2022-12-18T21:56:44.809Z,24.70
2022-12-18T21:57:45.917Z,24.00
2022-12-18T21:58:55.477Z,32.03
2022-12-18T21:59:58.591Z,26.08
2022-12-18T22:00:59.490Z,20.77
2022-12-18T22:02:02.211Z,17.60
2022-12-18T22:03:17.487Z,15.02
2022-12-18T22:04:20.423Z,21.73
2022-12-18T22:05:22.961Z,17.70
2022-12-18T22:06:23.841Z,15.82
2022-12-18T22:07:25.896Z,17.90
2022-12-18T22:09:27.849Z,17.95
2022-12-18T22:10:28.689Z,30.15
2022-12-18T22:11:30.482Z,26.38
2022-12-18T22:12:43.116Z,21.42
2022-12-18T22:13:45.426Z,19.13
2022-12-18T22:14:46.539Z,57.10
2022-12-18T22:15:47.481Z,32.25
2022-12-18T22:16:49.054Z,51.07
2022-12-18T22:17:50.317Z,44.95
2022-12-18T22:18:51.470Z,47.65
2022-12-18T22:19:52.296Z,28.15
2022-12-18T22:21:00.356Z,28.92
2022-12-18T22:22:01.228Z,33.58
2022-12-18T22:23:04.263Z,23.40
2022-12-18T22:24:08.266Z,23.55
2022-12-18T22:25:09.953Z,30.67
2022-12-18T22:26:11.077Z,26.63
2022-12-18T22:27:12.842Z,21.67
2022-12-18T22:28:32.318Z,26.02
2022-12-18T22:29:51.787Z,26.60
2022-12-18T22:30:57.753Z,34.83
2022-12-18T22:32:00.865Z,17.10
2022-12-18T22:33:01.785Z,19.02
2022-12-18T22:34:03.461Z,17.17
2022-12-18T22:35:08.408Z,32.13
2022-12-18T22:36:13.984Z,27.35
2022-12-18T22:37:16.961Z,24.45
2022-12-18T22:38:18.270Z,29.23
2022-12-18T22:39:20.266Z,27.38
2022-12-18T22:40:25.432Z,30.92
2022-12-18T22:41:26.962Z,30.55
2022-12-18T22:42:30.921Z,25.02
2022-12-18T22:43:32.674Z,20.80
2022-12-18T22:44:33.875Z,22.38
2022-12-18T22:45:36.306Z,22.98
2022-12-18T22:46:41.568Z,26.00
2022-12-18T22:47:42.416Z,20.45
2022-12-18T22:48:43.562Z,18.83
2022-12-18T22:49:44.473Z,17.02
2022-12-18T22:50:45.574Z,20.73
2022-12-18T22:51:46.805Z,20.45
2022-12-18T22:52:47.911Z,17.50
2022-12-18T22:53:48.769Z,18.83
2022-12-18T22:54:50.570Z,18.65
2022-12-18T22:55:51.402Z,19.58
